sensor_id;sensor_type;location;lat;lon;timestamp;temperature;humidity
24176;DHT22;12324;48.146;11.502;2022-07-03T00:02:19;15.80;99.90
24176;DHT22;12324;48.146;11.502;2022-07-03T00:04:45;15.80;99.90
24176;DHT22;12324;48.146;11.502;2022-07-03T00:07:12;15.80;99.90
24176;DHT22;12324;48.146;11.502;2022-07-03T00:09:39;15.80;99.90
24176;DHT22;12324;48.146;11.502;2022-07-03T00:12:06;15.80;99.90
24176;DHT22;12324;48.146;11.502;2022-07-03T00:14:33;15.80;99.90
24176;DHT22;12324;48.146;11.502;2022-07-03T00:17:00;15.80;99.90
24176;DHT22;12324;48.146;11.502;2022-07-03T00:19:27;15.90;99.90
24176;DHT22;12324;48.146;11.502;2022-07-03T00:21:56;15.90;99.90
24176;DHT22;12324;48.146;11.502;2022-07-03T00:24:44;15.90;99.90
24176;DHT22;12324;48.146;11.502;2022-07-03T00:27:15;16.00;99.90
24176;DHT22;12324;48.146;11.502;2022-07-03T00:29:44;16.00;99.90
24176;DHT22;12324;48.146;11.502;2022-07-03T00:32:13;15.90;99.90
24176;DHT22;12324;48.146;11.502;2022-07-03T00:34:41;15.90;99.90
24176;DHT22;12324;48.146;11.502;2022-07-03T00:37:10;15.90;99.90
24176;DHT22;12324;48.146;11.502;2022-07-03T00:39:39;15.90;99.90
24176;DHT22;12324;48.146;11.502;2022-07-03T00:42:08;15.90;99.90
24176;DHT22;12324;48.146;11.502;2022-07-03T00:44:44;15.90;99.90
24176;DHT22;12324;48.146;11.502;2022-07-03T00:47:12;15.90;99.90
24176;DHT22;12324;48.146;11.502;2022-07-03T00:49:40;15.90;99.90
24176;DHT22;12324;48.146;11.502;2022-07-03T00:52:11;16.00;99.90
24176;DHT22;12324;48.146;11.502;2022-07-03T00:54:51;16.00;99.90
24176;DHT22;12324;48.146;11.502;2022-07-03T00:57:19;15.90;99.90
24176;DHT22;12324;48.146;11.502;2022-07-03T00:59:46;15.90;99.90
24176;DHT22;12324;48.146;11.502;2022-07-03T01:05:38;15.80;99.90
24176;DHT22;12324;48.146;11.502;2022-07-03T01:08:24;15.70;99.90
24176;DHT22;12324;48.146;11.502;2022-07-03T01:16:41;15.70;99.90
24176;DHT22;12324;48.146;11.502;2022-07-03T01:22:23;15.60;99.90
24176;DHT22;12324;48.146;11.502;2022-07-03T01:28:30;15.60;99.90
24176;DHT22;12324;48.146;11.502;2022-07-03T01:30:46;15.50;99.90
24176;DHT22;12324;48.146;11.502;2022-07-03T01:36:05;15.60;99.90
24176;DHT22;12324;48.146;11.502;2022-07-03T01:38:34;15.70;99.90
24176;DHT22;12324;48.146;11.502;2022-07-03T01:41:03;15.70;99.90
24176;DHT22;12324;48.146;11.502;2022-07-03T01:43:56;15.70;99.90
24176;DHT22;12324;48.146;11.502;2022-07-03T01:46:25;15.70;99.90
24176;DHT22;12324;48.146;11.502;2022-07-03T01:48:54;15.60;99.90
24176;DHT22;12324;48.146;11.502;2022-07-03T01:51:22;15.60;99.90
24176;DHT22;12324;48.146;11.502;2022-07-03T01:53:51;15.50;99.90
24176;DHT22;12324;48.146;11.502;2022-07-03T01:56:21;15.40;99.90
24176;DHT22;12324;48.146;11.502;2022-07-03T01:58:48;15.40;99.90
24176;DHT22;12324;48.146;11.502;2022-07-03T02:01:21;15.50;99.90
24176;DHT22;12324;48.146;11.502;2022-07-03T02:04:03;15.50;99.90
24176;DHT22;12324;48.146;11.502;2022-07-03T02:06:44;15.50;99.90
24176;DHT22;12324;48.146;11.502;2022-07-03T02:09:18;15.40;99.90
24176;DHT22;12324;48.146;11.502;2022-07-03T02:12:12;15.40;99.90
24176;DHT22;12324;48.146;11.502;2022-07-03T02:14:40;15.40;99.90
24176;DHT22;12324;48.146;11.502;2022-07-03T02:17:19;15.40;99.90
24176;DHT22;12324;48.146;11.502;2022-07-03T02:22:27;15.40;99.90
24176;DHT22;12324;48.146;11.502;2022-07-03T02:25:03;15.40;99.90
24176;DHT22;12324;48.146;11.502;2022-07-03T02:27:47;15.40;99.90
24176;DHT22;12324;48.146;11.502;2022-07-03T02:30:17;15.50;99.90
24176;DHT22;12324;48.146;11.502;2022-07-03T02:32:50;15.50;99.90
24176;DHT22;12324;48.146;11.502;2022-07-03T02:35:34;15.50;99.90
24176;DHT22;12324;48.146;11.502;2022-07-03T02:38:12;15.50;99.90
24176;DHT22;12324;48.146;11.502;2022-07-03T02:41:08;15.40;99.90
24176;DHT22;12324;48.146;11.502;2022-07-03T02:46:18;15.40;99.90
24176;DHT22;12324;48.146;11.502;2022-07-03T02:51:54;15.30;99.90
24176;DHT22;12324;48.146;11.502;2022-07-03T02:54:25;15.30;99.90
24176;DHT22;12324;48.146;11.502;2022-07-03T02:59:52;15.40;99.90
24176;DHT22;12324;48.146;11.502;2022-07-03T03:02:23;15.40;99.90
24176;DHT22;12324;48.146;11.502;2022-07-03T03:04:58;15.60;99.90
24176;DHT22;12324;48.146;11.502;2022-07-03T03:07:34;15.60;99.90
24176;DHT22;12324;48.146;11.502;2022-07-03T03:10:01;15.60;99.90
24176;DHT22;12324;48.146;11.502;2022-07-03T03:12:36;15.60;99.90
24176;DHT22;12324;48.146;11.502;2022-07-03T03:15:04;15.60;99.90
24176;DHT22;12324;48.146;11.502;2022-07-03T03:17:41;15.50;99.90
24176;DHT22;12324;48.146;11.502;2022-07-03T03:20:12;15.50;99.90
24176;DHT22;12324;48.146;11.502;2022-07-03T03:25:33;15.40;99.90
24176;DHT22;12324;48.146;11.502;2022-07-03T03:28:00;15.40;99.90
24176;DHT22;12324;48.146;11.502;2022-07-03T03:30:26;15.40;99.90
24176;DHT22;12324;48.146;11.502;2022-07-03T03:32:53;15.30;99.90
24176;DHT22;12324;48.146;11.502;2022-07-03T03:35:20;15.30;99.90
24176;DHT22;12324;48.146;11.502;2022-07-03T03:37:47;15.30;99.90
24176;DHT22;12324;48.146;11.502;2022-07-03T03:40:16;15.30;99.90
24176;DHT22;12324;48.146;11.502;2022-07-03T03:42:43;15.20;99.90
24176;DHT22;12324;48.146;11.502;2022-07-03T03:45:10;15.20;99.90
24176;DHT22;12324;48.146;11.502;2022-07-03T03:47:37;15.20;99.90
24176;DHT22;12324;48.146;11.502;2022-07-03T03:50:04;15.20;99.90
24176;DHT22;12324;48.146;11.502;2022-07-03T03:52:32;15.20;99.90
24176;DHT22;12324;48.146;11.502;2022-07-03T03:54:59;15.20;99.90
24176;DHT22;12324;48.146;11.502;2022-07-03T03:57:26;15.20;99.90
24176;DHT22;12324;48.146;11.502;2022-07-03T03:59:54;15.10;99.90
24176;DHT22;12324;48.146;11.502;2022-07-03T04:02:21;15.10;99.90
24176;DHT22;12324;48.146;11.502;2022-07-03T04:04:48;15.10;99.90
24176;DHT22;12324;48.146;11.502;2022-07-03T04:07:15;15.10;99.90
24176;DHT22;12324;48.146;11.502;2022-07-03T04:09:41;15.10;99.90
24176;DHT22;12324;48.146;11.502;2022-07-03T04:12:10;15.10;99.90
24176;DHT22;12324;48.146;11.502;2022-07-03T04:14:36;15.30;99.90
24176;DHT22;12324;48.146;11.502;2022-07-03T04:17:03;15.40;99.90
24176;DHT22;12324;48.146;11.502;2022-07-03T04:19:30;15.50;99.90
24176;DHT22;12324;48.146;11.502;2022-07-03T04:21:57;15.50;99.90
24176;DHT22;12324;48.146;11.502;2022-07-03T04:24:24;15.50;99.90
24176;DHT22;12324;48.146;11.502;2022-07-03T04:26:51;15.50;99.90
24176;DHT22;12324;48.146;11.502;2022-07-03T04:29:17;15.60;99.90
24176;DHT22;12324;48.146;11.502;2022-07-03T04:31:44;15.60;99.90
24176;DHT22;12324;48.146;11.502;2022-07-03T04:34:11;15.70;99.90
24176;DHT22;12324;48.146;11.502;2022-07-03T04:36:38;15.80;99.90
24176;DHT22;12324;48.146;11.502;2022-07-03T05:18:21;15.80;99.90
24176;DHT22;12324;48.146;11.502;2022-07-03T05:20:48;18.10;99.90
24176;DHT22;12324;48.146;11.502;2022-07-03T09:07:34;18.30;99.90
24176;DHT22;12324;48.146;11.502;2022-07-03T09:10:03;25.60;99.90
24176;DHT22;12324;48.146;11.502;2022-07-03T09:12:31;25.40;99.90
24176;DHT22;12324;48.146;11.502;2022-07-03T09:14:59;25.50;99.90
24176;DHT22;12324;48.146;11.502;2022-07-03T09:17:27;25.60;99.90
24176;DHT22;12324;48.146;11.502;2022-07-03T09:19:54;25.70;99.90
24176;DHT22;12324;48.146;11.502;2022-07-03T09:22:35;25.80;99.90
24176;DHT22;12324;48.146;11.502;2022-07-03T09:25:10;25.80;99.90
24176;DHT22;12324;48.146;11.502;2022-07-03T09:27:44;25.90;99.90
24176;DHT22;12324;48.146;11.502;2022-07-03T09:30:14;25.90;99.90
24176;DHT22;12324;48.146;11.502;2022-07-03T09:35:19;25.70;99.90
24176;DHT22;12324;48.146;11.502;2022-07-03T09:37:57;25.90;99.90
24176;DHT22;12324;48.146;11.502;2022-07-03T09:40:27;26.00;99.90
24176;DHT22;12324;48.146;11.502;2022-07-03T09:43:04;26.00;99.90
24176;DHT22;12324;48.146;11.502;2022-07-03T09:54:00;26.30;99.90
24176;DHT22;12324;48.146;11.502;2022-07-03T09:56:35;26.20;99.90
24176;DHT22;12324;48.146;11.502;2022-07-03T09:59:08;26.30;99.90
24176;DHT22;12324;48.146;11.502;2022-07-03T10:01:37;26.30;99.90
24176;DHT22;12324;48.146;11.502;2022-07-03T10:06:58;26.50;99.90
24176;DHT22;12324;48.146;11.502;2022-07-03T10:09:27;26.60;99.90
24176;DHT22;12324;48.146;11.502;2022-07-03T10:11:55;26.70;99.90
24176;DHT22;12324;48.146;11.502;2022-07-03T10:14:28;26.70;95.00
24176;DHT22;12324;48.146;11.502;2022-07-03T10:16:55;26.80;99.50
24176;DHT22;12324;48.146;11.502;2022-07-03T10:19:29;26.80;97.80
24176;DHT22;12324;48.146;11.502;2022-07-03T10:22:02;26.90;96.10
24176;DHT22;12324;48.146;11.502;2022-07-03T10:24:33;26.90;95.20
24176;DHT22;12324;48.146;11.502;2022-07-03T10:27:00;26.80;96.90
24176;DHT22;12324;48.146;11.502;2022-07-03T10:29:27;26.70;92.50
24176;DHT22;12324;48.146;11.502;2022-07-03T10:31:56;26.80;92.20
24176;DHT22;12324;48.146;11.502;2022-07-03T10:34:25;27.00;91.30
24176;DHT22;12324;48.146;11.502;2022-07-03T10:36:54;27.10;93.00
24176;DHT22;12324;48.146;11.502;2022-07-03T10:42:31;27.30;93.20
24176;DHT22;12324;48.146;11.502;2022-07-03T10:45:18;27.30;86.20
24176;DHT22;12324;48.146;11.502;2022-07-03T10:47:49;27.20;80.60
24176;DHT22;12324;48.146;11.502;2022-07-03T10:50:22;27.20;81.50
24176;DHT22;12324;48.146;11.502;2022-07-03T10:52:51;27.40;79.30
24176;DHT22;12324;48.146;11.502;2022-07-03T10:55:18;27.40;75.90
24176;DHT22;12324;48.146;11.502;2022-07-03T10:58:08;27.30;76.30
24176;DHT22;12324;48.146;11.502;2022-07-03T11:00:54;27.40;74.70
24176;DHT22;12324;48.146;11.502;2022-07-03T11:03:57;27.50;75.20
24176;DHT22;12324;48.146;11.502;2022-07-03T11:09:10;27.70;64.80
24176;DHT22;12324;48.146;11.502;2022-07-03T11:11:42;27.70;66.70
24176;DHT22;12324;48.146;11.502;2022-07-03T11:14:23;28.00;66.90
24176;DHT22;12324;48.146;11.502;2022-07-03T11:17:16;28.00;64.30
24176;DHT22;12324;48.146;11.502;2022-07-03T11:19:43;28.00;63.10
24176;DHT22;12324;48.146;11.502;2022-07-03T11:22:15;28.10;63.60
24176;DHT22;12324;48.146;11.502;2022-07-03T11:24:44;28.20;62.90
24176;DHT22;12324;48.146;11.502;2022-07-03T11:27:21;28.30;62.80
24176;DHT22;12324;48.146;11.502;2022-07-03T11:29:55;28.20;61.40
24176;DHT22;12324;48.146;11.502;2022-07-03T11:35:06;28.30;58.40
24176;DHT22;12324;48.146;11.502;2022-07-03T11:37:33;28.40;54.80
24176;DHT22;12324;48.146;11.502;2022-07-03T11:40:03;28.40;54.80
24176;DHT22;12324;48.146;11.502;2022-07-03T11:42:34;28.50;54.50
24176;DHT22;12324;48.146;11.502;2022-07-03T11:45:01;28.70;58.10
24176;DHT22;12324;48.146;11.502;2022-07-03T11:47:28;28.80;54.60
24176;DHT22;12324;48.146;11.502;2022-07-03T11:49:56;28.90;52.80
24176;DHT22;12324;48.146;11.502;2022-07-03T11:52:32;29.00;55.20
24176;DHT22;12324;48.146;11.502;2022-07-03T11:55:02;29.10;50.30
24176;DHT22;12324;48.146;11.502;2022-07-03T11:57:29;29.00;52.60
24176;DHT22;12324;48.146;11.502;2022-07-03T12:00:04;29.20;54.10
24176;DHT22;12324;48.146;11.502;2022-07-03T12:02:31;29.20;51.70
24176;DHT22;12324;48.146;11.502;2022-07-03T12:04:58;29.20;52.40
24176;DHT22;12324;48.146;11.502;2022-07-03T12:07:25;29.20;52.50
24176;DHT22;12324;48.146;11.502;2022-07-03T12:09:51;29.30;52.10
24176;DHT22;12324;48.146;11.502;2022-07-03T12:12:23;29.30;51.50
24176;DHT22;12324;48.146;11.502;2022-07-03T12:15:00;29.30;52.70
24176;DHT22;12324;48.146;11.502;2022-07-03T12:17:26;29.30;50.60
24176;DHT22;12324;48.146;11.502;2022-07-03T12:19:55;29.50;50.30
24176;DHT22;12324;48.146;11.502;2022-07-03T12:22:27;29.50;49.10
24176;DHT22;12324;48.146;11.502;2022-07-03T12:25:03;29.50;49.30
24176;DHT22;12324;48.146;11.502;2022-07-03T12:27:34;29.60;51.40
24176;DHT22;12324;48.146;11.502;2022-07-03T12:30:02;29.70;51.10
24176;DHT22;12324;48.146;11.502;2022-07-03T12:32:30;29.50;48.20
24176;DHT22;12324;48.146;11.502;2022-07-03T12:34:57;29.70;50.70
24176;DHT22;12324;48.146;11.502;2022-07-03T12:37:38;29.60;50.40
24176;DHT22;12324;48.146;11.502;2022-07-03T12:40:09;29.70;51.30
24176;DHT22;12324;48.146;11.502;2022-07-03T12:42:53;29.90;51.20
24176;DHT22;12324;48.146;11.502;2022-07-03T12:45:25;30.20;51.20
24176;DHT22;12324;48.146;11.502;2022-07-03T12:48:05;30.10;49.30
24176;DHT22;12324;48.146;11.502;2022-07-03T12:50:45;30.00;52.40
24176;DHT22;12324;48.146;11.502;2022-07-03T12:53:29;30.00;49.40
24176;DHT22;12324;48.146;11.502;2022-07-03T12:56:07;30.00;51.30
24176;DHT22;12324;48.146;11.502;2022-07-03T12:58:35;30.20;50.30
24176;DHT22;12324;48.146;11.502;2022-07-03T13:01:31;30.10;50.70
24176;DHT22;12324;48.146;11.502;2022-07-03T13:04:05;30.10;50.00
24176;DHT22;12324;48.146;11.502;2022-07-03T13:06:32;30.10;50.50
24176;DHT22;12324;48.146;11.502;2022-07-03T13:09:01;30.20;53.90
24176;DHT22;12324;48.146;11.502;2022-07-03T13:11:33;30.40;50.10
24176;DHT22;12324;48.146;11.502;2022-07-03T13:14:14;30.50;49.70
24176;DHT22;12324;48.146;11.502;2022-07-03T13:16:49;30.70;53.70
24176;DHT22;12324;48.146;11.502;2022-07-03T13:19:19;31.00;48.70
24176;DHT22;12324;48.146;11.502;2022-07-03T13:21:46;31.10;50.10
24176;DHT22;12324;48.146;11.502;2022-07-03T13:24:15;31.10;49.00
24176;DHT22;12324;48.146;11.502;2022-07-03T13:26:43;31.40;49.30
24176;DHT22;12324;48.146;11.502;2022-07-03T13:29:16;31.60;48.30
24176;DHT22;12324;48.146;11.502;2022-07-03T13:31:43;31.70;47.90
24176;DHT22;12324;48.146;11.502;2022-07-03T13:34:10;31.70;48.60
24176;DHT22;12324;48.146;11.502;2022-07-03T13:36:37;31.50;46.90
24176;DHT22;12324;48.146;11.502;2022-07-03T13:39:04;31.60;48.10
24176;DHT22;12324;48.146;11.502;2022-07-03T13:41:30;31.60;46.70
24176;DHT22;12324;48.146;11.502;2022-07-03T13:43:57;31.50;49.90
24176;DHT22;12324;48.146;11.502;2022-07-03T13:46:24;31.60;48.20
24176;DHT22;12324;48.146;11.502;2022-07-03T13:48:52;31.50;48.60
24176;DHT22;12324;48.146;11.502;2022-07-03T13:51:20;31.70;48.80
24176;DHT22;12324;48.146;11.502;2022-07-03T13:53:47;31.70;48.00
24176;DHT22;12324;48.146;11.502;2022-07-03T13:56:15;31.70;46.10
24176;DHT22;12324;48.146;11.502;2022-07-03T13:58:42;31.60;46.80
24176;DHT22;12324;48.146;11.502;2022-07-03T14:01:16;31.40;46.60
24176;DHT22;12324;48.146;11.502;2022-07-03T14:03:43;31.60;48.80
24176;DHT22;12324;48.146;11.502;2022-07-03T14:06:11;31.90;48.60
24176;DHT22;12324;48.146;11.502;2022-07-03T18:00:10;35.90;38.20
24176;DHT22;12324;48.146;11.502;2022-07-03T18:02:39;34.20;35.40
24176;DHT22;12324;48.146;11.502;2022-07-03T18:05:07;33.40;37.50
24176;DHT22;12324;48.146;11.502;2022-07-03T18:08:15;32.80;37.50
24176;DHT22;12324;48.146;11.502;2022-07-03T18:11:01;32.20;39.20
24176;DHT22;12324;48.146;11.502;2022-07-03T18:16:20;31.50;40.40
24176;DHT22;12324;48.146;11.502;2022-07-03T18:18:55;31.20;41.70
24176;DHT22;12324;48.146;11.502;2022-07-03T18:21:23;30.90;41.50
24176;DHT22;12324;48.146;11.502;2022-07-03T18:23:53;30.60;41.80
24176;DHT22;12324;48.146;11.502;2022-07-03T18:26:27;30.20;42.80
24176;DHT22;12324;48.146;11.502;2022-07-03T18:28:56;30.00;44.00
24176;DHT22;12324;48.146;11.502;2022-07-03T18:31:23;29.80;44.80
24176;DHT22;12324;48.146;11.502;2022-07-03T18:33:52;29.60;45.90
24176;DHT22;12324;48.146;11.502;2022-07-03T18:36:21;29.50;46.30
24176;DHT22;12324;48.146;11.502;2022-07-03T18:38:48;29.40;46.80
24176;DHT22;12324;48.146;11.502;2022-07-03T18:41:16;29.10;47.40
24176;DHT22;12324;48.146;11.502;2022-07-03T18:43:43;29.00;49.50
24176;DHT22;12324;48.146;11.502;2022-07-03T18:46:09;28.80;48.30
24176;DHT22;12324;48.146;11.502;2022-07-03T18:48:37;28.70;52.10
24176;DHT22;12324;48.146;11.502;2022-07-03T18:51:46;28.50;55.50
24176;DHT22;12324;48.146;11.502;2022-07-03T18:54:35;28.30;59.80
24176;DHT22;12324;48.146;11.502;2022-07-03T18:59:40;28.00;68.20
24176;DHT22;12324;48.146;11.502;2022-07-03T19:02:20;27.80;68.40
24176;DHT22;12324;48.146;11.502;2022-07-03T19:04:52;27.70;74.80
24176;DHT22;12324;48.146;11.502;2022-07-03T19:10:04;27.30;82.40
24176;DHT22;12324;48.146;11.502;2022-07-03T19:12:37;27.10;86.30
24176;DHT22;12324;48.146;11.502;2022-07-03T19:15:06;26.80;88.40
24176;DHT22;12324;48.146;11.502;2022-07-03T19:17:34;26.60;88.40
24176;DHT22;12324;48.146;11.502;2022-07-03T19:20:05;26.40;90.60
24176;DHT22;12324;48.146;11.502;2022-07-03T19:22:34;26.30;91.40
24176;DHT22;12324;48.146;11.502;2022-07-03T19:25:03;26.10;92.70
24176;DHT22;12324;48.146;11.502;2022-07-03T19:27:30;26.00;92.00
24176;DHT22;12324;48.146;11.502;2022-07-03T19:29:57;25.90;93.60
24176;DHT22;12324;48.146;11.502;2022-07-03T19:32:24;25.80;96.60
24176;DHT22;12324;48.146;11.502;2022-07-03T19:34:50;25.60;97.90
24176;DHT22;12324;48.146;11.502;2022-07-03T19:37:18;25.50;99.90
24176;DHT22;12324;48.146;11.502;2022-07-03T19:39:46;25.30;99.90
24176;DHT22;12324;48.146;11.502;2022-07-03T19:42:13;25.20;99.90
24176;DHT22;12324;48.146;11.502;2022-07-03T19:44:40;25.10;99.90
24176;DHT22;12324;48.146;11.502;2022-07-03T19:47:07;25.10;99.90
24176;DHT22;12324;48.146;11.502;2022-07-03T19:49:54;25.00;99.90
24176;DHT22;12324;48.146;11.502;2022-07-03T19:52:21;24.90;99.90
24176;DHT22;12324;48.146;11.502;2022-07-03T19:54:47;24.80;99.90
24176;DHT22;12324;48.146;11.502;2022-07-03T19:57:15;24.70;99.90
24176;DHT22;12324;48.146;11.502;2022-07-03T19:59:42;24.70;99.90
24176;DHT22;12324;48.146;11.502;2022-07-03T20:02:08;24.60;99.90
24176;DHT22;12324;48.146;11.502;2022-07-03T20:04:37;24.50;99.90
24176;DHT22;12324;48.146;11.502;2022-07-03T20:07:04;24.30;99.90
24176;DHT22;12324;48.146;11.502;2022-07-03T20:09:31;24.30;99.90
24176;DHT22;12324;48.146;11.502;2022-07-03T20:11:58;24.20;99.90
24176;DHT22;12324;48.146;11.502;2022-07-03T20:14:24;24.10;99.90
24176;DHT22;12324;48.146;11.502;2022-07-03T20:16:54;23.90;99.90
24176;DHT22;12324;48.146;11.502;2022-07-03T20:19:21;23.90;99.90
24176;DHT22;12324;48.146;11.502;2022-07-03T20:21:48;23.80;99.90
24176;DHT22;12324;48.146;11.502;2022-07-03T20:24:15;23.60;99.90
24176;DHT22;12324;48.146;11.502;2022-07-03T20:26:58;23.60;99.90
24176;DHT22;12324;48.146;11.502;2022-07-03T20:29:26;23.50;99.90
24176;DHT22;12324;48.146;11.502;2022-07-03T20:31:53;23.30;99.90
24176;DHT22;12324;48.146;11.502;2022-07-03T20:34:20;23.20;99.90
24176;DHT22;12324;48.146;11.502;2022-07-03T20:36:46;23.20;99.90
24176;DHT22;12324;48.146;11.502;2022-07-03T20:39:13;23.10;99.90
24176;DHT22;12324;48.146;11.502;2022-07-03T20:41:40;23.20;99.90
24176;DHT22;12324;48.146;11.502;2022-07-03T20:44:07;23.20;99.90
24176;DHT22;12324;48.146;11.502;2022-07-03T20:46:37;23.20;99.90
24176;DHT22;12324;48.146;11.502;2022-07-03T20:49:07;23.10;99.90
24176;DHT22;12324;48.146;11.502;2022-07-03T20:51:39;23.10;99.90
24176;DHT22;12324;48.146;11.502;2022-07-03T20:54:06;23.10;99.90
24176;DHT22;12324;48.146;11.502;2022-07-03T20:56:33;23.00;99.90
24176;DHT22;12324;48.146;11.502;2022-07-03T20:58:59;23.00;99.90
24176;DHT22;12324;48.146;11.502;2022-07-03T21:01:26;23.00;99.90
24176;DHT22;12324;48.146;11.502;2022-07-03T21:03:54;23.00;99.90
24176;DHT22;12324;48.146;11.502;2022-07-03T21:06:21;22.90;99.90
24176;DHT22;12324;48.146;11.502;2022-07-03T21:08:48;23.00;99.90
24176;DHT22;12324;48.146;11.502;2022-07-03T21:11:15;23.20;99.90
24176;DHT22;12324;48.146;11.502;2022-07-03T21:16:42;23.20;99.90
24176;DHT22;12324;48.146;11.502;2022-07-03T21:19:12;23.20;99.90
24176;DHT22;12324;48.146;11.502;2022-07-03T21:21:39;23.10;99.90
24176;DHT22;12324;48.146;11.502;2022-07-03T21:24:07;23.10;99.90
24176;DHT22;12324;48.146;11.502;2022-07-03T21:26:44;23.00;99.90
24176;DHT22;12324;48.146;11.502;2022-07-03T21:29:13;22.70;99.90
24176;DHT22;12324;48.146;11.502;2022-07-03T21:31:40;22.50;99.90
24176;DHT22;12324;48.146;11.502;2022-07-03T21:34:07;22.40;99.90
24176;DHT22;12324;48.146;11.502;2022-07-03T21:36:35;22.40;99.90
24176;DHT22;12324;48.146;11.502;2022-07-03T21:39:02;22.30;99.90
24176;DHT22;12324;48.146;11.502;2022-07-03T21:41:29;22.30;99.90
24176;DHT22;12324;48.146;11.502;2022-07-03T21:43:55;22.30;99.90
24176;DHT22;12324;48.146;11.502;2022-07-03T21:46:22;22.30;99.90
24176;DHT22;12324;48.146;11.502;2022-07-03T21:48:49;22.30;99.90
24176;DHT22;12324;48.146;11.502;2022-07-03T21:51:15;22.20;99.90
24176;DHT22;12324;48.146;11.502;2022-07-03T21:53:42;22.20;99.90
24176;DHT22;12324;48.146;11.502;2022-07-03T21:56:09;22.20;99.90
24176;DHT22;12324;48.146;11.502;2022-07-03T21:58:36;22.10;99.90
24176;DHT22;12324;48.146;11.502;2022-07-03T22:01:03;22.00;99.90
24176;DHT22;12324;48.146;11.502;2022-07-03T22:03:29;22.00;99.90
24176;DHT22;12324;48.146;11.502;2022-07-03T22:05:56;21.90;99.90
24176;DHT22;12324;48.146;11.502;2022-07-03T22:08:23;21.90;99.90
24176;DHT22;12324;48.146;11.502;2022-07-03T22:10:50;21.80;99.90
24176;DHT22;12324;48.146;11.502;2022-07-03T22:13:20;21.80;99.90
24176;DHT22;12324;48.146;11.502;2022-07-03T22:15:48;21.70;99.90
24176;DHT22;12324;48.146;11.502;2022-07-03T22:18:16;21.70;99.90
24176;DHT22;12324;48.146;11.502;2022-07-03T22:20:43;21.60;99.90
24176;DHT22;12324;48.146;11.502;2022-07-03T22:23:09;21.60;99.90
24176;DHT22;12324;48.146;11.502;2022-07-03T22:25:36;21.50;99.90
24176;DHT22;12324;48.146;11.502;2022-07-03T22:28:03;21.50;99.90
24176;DHT22;12324;48.146;11.502;2022-07-03T22:30:30;21.40;99.90
24176;DHT22;12324;48.146;11.502;2022-07-03T22:32:57;21.50;99.90
24176;DHT22;12324;48.146;11.502;2022-07-03T22:35:24;21.50;99.90
24176;DHT22;12324;48.146;11.502;2022-07-03T22:37:50;21.50;99.90
24176;DHT22;12324;48.146;11.502;2022-07-03T22:40:17;21.50;99.90
24176;DHT22;12324;48.146;11.502;2022-07-03T22:42:45;21.50;99.90
24176;DHT22;12324;48.146;11.502;2022-07-03T22:45:13;21.50;99.90
24176;DHT22;12324;48.146;11.502;2022-07-03T22:47:39;21.50;99.90
24176;DHT22;12324;48.146;11.502;2022-07-03T22:50:06;21.50;99.90
24176;DHT22;12324;48.146;11.502;2022-07-03T22:52:33;21.60;99.90
24176;DHT22;12324;48.146;11.502;2022-07-03T22:55:00;21.60;99.90
24176;DHT22;12324;48.146;11.502;2022-07-03T22:57:28;21.60;99.90
24176;DHT22;12324;48.146;11.502;2022-07-03T22:59:55;21.70;99.90
24176;DHT22;12324;48.146;11.502;2022-07-03T23:02:22;21.70;99.90
24176;DHT22;12324;48.146;11.502;2022-07-03T23:04:49;21.70;99.90
24176;DHT22;12324;48.146;11.502;2022-07-03T23:07:16;21.70;99.90
24176;DHT22;12324;48.146;11.502;2022-07-03T23:09:43;21.70;99.90
24176;DHT22;12324;48.146;11.502;2022-07-03T23:12:10;21.70;99.90
24176;DHT22;12324;48.146;11.502;2022-07-03T23:14:40;21.80;99.90
24176;DHT22;12324;48.146;11.502;2022-07-03T23:17:07;21.70;99.90
24176;DHT22;12324;48.146;11.502;2022-07-03T23:19:34;21.70;99.90
24176;DHT22;12324;48.146;11.502;2022-07-03T23:22:01;21.70;99.90
24176;DHT22;12324;48.146;11.502;2022-07-03T23:24:27;21.70;99.90
24176;DHT22;12324;48.146;11.502;2022-07-03T23:26:54;21.70;99.90
24176;DHT22;12324;48.146;11.502;2022-07-03T23:29:21;21.60;99.90
24176;DHT22;12324;48.146;11.502;2022-07-03T23:31:47;21.50;99.90
24176;DHT22;12324;48.146;11.502;2022-07-03T23:34:14;21.50;99.90
24176;DHT22;12324;48.146;11.502;2022-07-03T23:36:41;21.50;99.90
24176;DHT22;12324;48.146;11.502;2022-07-03T23:39:08;21.40;99.90
24176;DHT22;12324;48.146;11.502;2022-07-03T23:41:34;21.30;99.90
24176;DHT22;12324;48.146;11.502;2022-07-03T23:44:01;21.20;99.90
24176;DHT22;12324;48.146;11.502;2022-07-03T23:46:28;21.20;99.90
24176;DHT22;12324;48.146;11.502;2022-07-03T23:48:55;21.20;99.90
24176;DHT22;12324;48.146;11.502;2022-07-03T23:51:40;21.20;99.90
24176;DHT22;12324;48.146;11.502;2022-07-03T23:54:07;21.20;99.90
24176;DHT22;12324;48.146;11.502;2022-07-03T23:56:33;21.20;99.90
24176;DHT22;12324;48.146;11.502;2022-07-03T23:59:00;21.30;99.90
